Time;durP1;ratioP1;P1;durP2;ratioP2;P2;SDS_P1;SDS_P2;PMS_P1;PMS_P2;Temp;Humidity;BMP_temperature;BMP_pressure;BME280_temperature;BME280_humidity;BME280_pressure;Samples;Min_cycle;Max_cycle;Signal;HPM_P1;HPM_P2
2021/08/10 00:02:01;;;;;;;10.47;5.40;;;;;;;22.05;75.03;100704.57;126314;1099;104633;-76
2021/08/10 00:04:31;;;;;;;8.30;4.77;;;;;;;22.06;74.99;100708.99;125132;1099;104149;-76
2021/08/10 00:07:02;;;;;;;11.83;4.60;;;;;;;22.05;75.70;100708.12;125227;1099;104344;-76
2021/08/10 00:09:33;;;;;;;12.00;5.20;;;;;;;22.06;75.37;100708.99;125174;1102;104175;-76
2021/08/10 00:12:04;;;;;;;10.00;4.87;;;;;;;22.07;75.03;100708.98;125257;1099;104153;-77
2021/08/10 00:14:35;;;;;;;9.23;5.00;;;;;;;22.05;75.62;100716.13;125259;1099;104203;-77
2021/08/10 00:17:06;;;;;;;9.17;4.80;;;;;;;22.04;74.83;100714.34;126328;1099;104211;-76
2021/08/10 00:19:36;;;;;;;9.67;4.90;;;;;;;22.02;75.22;100718.83;125239;1099;104175;-76
2021/08/10 00:22:07;;;;;;;11.27;4.93;;;;;;;22.04;75.64;100705.45;126318;1099;104452;-76
2021/08/10 00:24:38;;;;;;;10.27;4.67;;;;;;;22.04;75.31;100708.13;125228;1099;104168;-75
2021/08/10 00:27:09;;;;;;;9.90;4.97;;;;;;;22.03;75.61;100701.00;125184;1099;104155;-76
2021/08/10 00:29:40;;;;;;;10.20;4.67;;;;;;;22.03;75.25;100707.25;125334;1099;104150;-76
2021/08/10 00:32:13;;;;;;;8.60;4.40;;;;;;;22.04;75.21;100705.45;125202;1099;104232;-76
2021/08/10 00:34:44;;;;;;;8.90;4.60;;;;;;;22.03;75.42;100709.02;125205;1099;104201;-76
2021/08/10 00:37:15;;;;;;;14.33;4.60;;;;;;;22.00;75.11;100706.38;125263;1102;104253;-77
2021/08/10 00:39:46;;;;;;;11.47;4.40;;;;;;;21.98;75.66;100705.51;125202;1099;104809;-77
2021/08/10 00:42:17;;;;;;;9.37;4.73;;;;;;;21.95;75.64;100697.52;125181;1102;104140;-76
2021/08/10 00:44:48;;;;;;;10.40;4.33;;;;;;;21.93;75.34;100692.19;125514;1099;104150;-76
2021/08/10 00:47:19;;;;;;;11.03;4.70;;;;;;;21.94;75.90;100693.06;125241;1099;104280;-75
2021/08/10 00:49:51;;;;;;;9.45;4.35;;;;;;;21.90;75.10;100690.41;126305;1099;104149;-76
2021/08/10 00:52:22;;;;;;;9.37;4.40;;;;;;;21.88;75.01;100686.00;126315;1099;104161;-77
2021/08/10 00:54:53;;;;;;;8.00;4.60;;;;;;;21.86;75.19;100683.34;125199;1099;104224;-78
2021/08/10 00:57:25;;;;;;;9.60;4.47;;;;;;;21.86;74.89;100682.44;125176;1099;104201;-76
2021/08/10 00:59:59;;;;;;;9.23;4.47;;;;;;;21.84;74.98;100681.57;125280;1099;104149;-77
2021/08/10 01:02:32;;;;;;;6.80;4.20;;;;;;;21.81;75.73;100677.13;125161;1099;104137;-77
2021/08/10 01:05:04;;;;;;;9.63;4.60;;;;;;;21.80;75.82;100670.03;125204;1099;104181;-76
2021/08/10 01:07:41;;;;;;;7.47;4.33;;;;;;;21.76;75.79;100678.08;125279;1099;104147;-76
2021/08/10 01:10:24;;;;;;;9.70;4.33;;;;;;;21.74;76.00;100678.09;125211;1099;104267;-77
2021/08/10 01:13:05;;;;;;;7.17;4.40;;;;;;;21.71;75.73;100689.67;125239;1099;104268;-76
2021/08/10 01:15:45;;;;;;;10.37;4.60;;;;;;;21.69;75.72;100688.81;125690;1099;104143;-77
2021/08/10 01:18:20;;;;;;;10.20;4.43;;;;;;;21.68;75.64;100695.03;125310;1099;104175;-76
2021/08/10 01:21:12;;;;;;;7.37;4.33;;;;;;;21.67;75.37;100692.38;125216;1099;104204;-76
2021/08/10 01:23:52;;;;;;;8.25;4.03;;;;;;;21.66;75.42;100696.84;125200;1099;104140;-75
2021/08/10 01:26:36;;;;;;;10.07;4.63;;;;;;;21.63;75.85;100693.28;125130;1099;104149;-76
2021/08/10 01:29:20;;;;;;;6.37;4.20;;;;;;;21.60;75.93;100686.20;125179;1099;104169;-76
2021/08/10 01:31:54;;;;;;;8.57;4.50;;;;;;;21.58;75.65;100684.42;125237;1099;104153;-77
2021/08/10 01:34:37;;;;;;;8.80;4.57;;;;;;;21.57;76.56;100685.34;125220;1099;104235;-76
2021/08/10 01:37:20;;;;;;;9.67;3.87;;;;;;;21.52;75.76;100678.24;125177;1099;107854;-76
2021/08/10 01:39:58;;;;;;;6.63;3.70;;;;;;;21.51;75.62;100676.45;125267;1099;104185;-76
2021/08/10 01:42:38;;;;;;;7.27;4.13;;;;;;;21.51;75.74;100683.59;125227;1099;104214;-76
2021/08/10 01:45:11;;;;;;;8.23;4.03;;;;;;;21.51;76.29;100683.59;125186;1099;104586;-77
2021/08/10 01:47:47;;;;;;;6.87;4.13;;;;;;;21.49;76.52;100688.06;125221;1099;117876;-76
2021/08/10 01:50:23;;;;;;;11.67;4.70;;;;;;;21.48;75.77;100689.79;125225;1098;104146;-76
2021/08/10 01:53:04;;;;;;;10.07;4.37;;;;;;;21.46;76.73;100690.72;125290;1099;104181;-76
2021/08/10 01:55:39;;;;;;;7.70;4.47;;;;;;;21.41;76.56;100682.73;125208;1099;104175;-76
2021/08/10 01:58:17;;;;;;;9.07;4.67;;;;;;;21.40;76.36;100680.08;125278;1099;105289;-76
2021/08/10 02:00:52;;;;;;;8.00;4.70;;;;;;;21.37;75.96;100681.84;125255;1099;104162;-77
2021/08/10 02:03:26;;;;;;;7.87;4.30;;;;;;;21.37;76.23;100683.64;125224;1099;104251;-76
2021/08/10 02:06:03;;;;;;;12.03;4.53;;;;;;;21.34;76.36;100683.66;125213;1099;104300;-76
2021/08/10 02:08:35;;;;;;;;;;;;;;;21.29;76.33;100683.68;125246;1099;104165;-77
2021/08/10 02:11:07;;;;;;;8.87;4.20;;;;;;;21.27;76.95;100677.48;125170;1102;104219;-77
2021/08/10 02:13:39;;;;;;;10.77;4.47;;;;;;;21.23;76.68;100666.83;125287;1099;104152;-77
2021/08/10 02:16:13;;;;;;;8.50;4.57;;;;;;;21.19;76.47;100666.84;125340;1099;104338;-76
2021/08/10 02:18:49;;;;;;;11.50;4.60;;;;;;;21.17;76.38;100665.94;126310;1099;104223;-76
2021/08/10 02:21:34;;;;;;;12.03;4.93;;;;;;;21.16;76.33;100669.53;125225;1099;104226;-77
2021/08/10 02:24:10;;;;;;;11.67;4.40;;;;;;;21.18;77.37;100677.52;126321;1099;104166;-76
2021/08/10 02:26:47;;;;;;;7.13;4.47;;;;;;;21.15;76.81;100665.08;125195;1099;104171;-76
2021/08/10 02:29:22;;;;;;;7.97;4.63;;;;;;;21.14;77.20;100676.63;125181;1099;104242;-76
2021/08/10 02:31:55;;;;;;;8.08;4.80;;;;;;;21.13;76.85;100677.55;125219;1099;104213;-77
2021/08/10 02:34:29;;;;;;;8.57;4.53;;;;;;;21.12;76.89;100675.77;125297;1099;104147;-77
2021/08/10 02:37:02;;;;;;;9.00;4.80;;;;;;;21.10;77.29;100674.89;125179;1099;104137;-76
2021/08/10 02:39:35;;;;;;;9.23;4.58;;;;;;;21.07;77.85;100674.91;125206;1099;104198;-77
2021/08/10 02:42:08;;;;;;;14.07;4.50;;;;;;;21.06;77.40;100673.12;125234;1099;104255;-76
2021/08/10 02:44:40;;;;;;;8.70;4.85;;;;;;;21.04;77.32;100668.70;125241;1099;104146;-77
2021/08/10 02:47:17;;;;;;;11.60;4.77;;;;;;;21.00;77.66;100663.39;125202;1099;104146;-76
2021/08/10 02:49:48;;;;;;;9.45;4.65;;;;;;;20.99;77.01;100666.06;125232;1099;104208;-77
2021/08/10 02:52:19;;;;;;;9.87;4.87;;;;;;;20.97;78.04;100668.73;125257;1099;104738;-76
2021/08/10 02:54:50;;;;;;;9.07;4.70;;;;;;;20.97;78.25;100675.83;125163;1099;104240;-76
2021/08/10 02:57:27;;;;;;;9.17;4.70;;;;;;;20.94;78.41;100673.17;125497;1099;104172;-78
2021/08/10 03:00:02;;;;;;;13.17;5.17;;;;;;;20.90;78.11;100674.10;126307;1099;104152;-76
2021/08/10 03:02:38;;;;;;;10.90;4.80;;;;;;;20.89;78.04;100678.53;125265;1099;104205;-76
2021/08/10 03:05:15;;;;;;;9.87;4.80;;;;;;;20.87;78.29;100680.32;126317;1099;104242;-77
2021/08/10 03:07:51;;;;;;;8.70;5.10;;;;;;;20.86;77.97;100680.33;125744;1099;104344;-76
2021/08/10 03:10:24;;;;;;;11.57;5.30;;;;;;;20.86;78.33;100683.00;125175;1099;104158;-77
2021/08/10 03:13:00;;;;;;;20.95;5.50;;;;;;;20.86;78.44;100680.33;125244;1099;104281;-76
2021/08/10 03:15:38;;;;;;;14.37;5.10;;;;;;;20.87;77.62;100690.11;125261;1099;104191;-76
2021/08/10 03:18:12;;;;;;;12.97;5.23;;;;;;;20.87;78.56;100692.78;125719;1099;104585;-78
2021/08/10 03:20:45;;;;;;;14.07;5.60;;;;;;;20.87;78.62;100684.78;125207;1099;104357;-76
2021/08/10 03:23:21;;;;;;;10.97;5.37;;;;;;;20.88;78.77;100687.44;126296;1099;104143;-75
2021/08/10 03:25:52;;;;;;;11.15;5.12;;;;;;;20.87;78.06;100693.66;126301;1099;104146;-76
2021/08/10 03:28:26;;;;;;;9.27;5.00;;;;;;;20.87;78.08;100685.66;125178;1099;104242;-75
2021/08/10 03:31:00;;;;;;;10.60;4.80;;;;;;;20.86;78.15;100681.20;125175;1099;104271;-77
2021/08/10 03:33:30;;;;;;;;;;;;;;;20.85;77.72;100671.45;125231;1099;104165;-77
2021/08/10 03:36:02;;;;;;;10.13;4.90;;;;;;;20.85;79.29;100675.88;125261;1099;104191;-76
2021/08/10 03:38:36;;;;;;;13.28;5.12;;;;;;;20.85;78.99;100667.87;125190;1100;104207;-77
2021/08/10 03:41:08;;;;;;;13.37;5.40;;;;;;;20.88;78.54;100673.20;125203;1099;104149;-78
2021/08/10 03:43:40;;;;;;;11.00;4.83;;;;;;;20.92;78.73;100670.52;125120;1099;104171;-77
2021/08/10 03:46:11;;;;;;;9.10;4.80;;;;;;;20.97;78.08;100670.49;125242;1099;104258;-77
2021/08/10 03:48:45;;;;;;;10.60;5.00;;;;;;;20.99;78.56;100660.73;125643;1099;104192;-76
2021/08/10 03:51:20;;;;;;;13.87;5.80;;;;;;;21.01;78.53;100666.93;126314;1099;104602;-76
2021/08/10 03:53:51;;;;;;;13.40;5.57;;;;;;;21.04;78.53;100668.70;126335;1099;104253;-76
2021/08/10 03:56:27;;;;;;;17.00;5.95;;;;;;;21.06;77.97;100667.78;125272;1099;104153;-77
2021/08/10 03:59:01;;;;;;;15.77;5.67;;;;;;;21.07;78.34;100660.69;125158;1099;104178;-76
2021/08/10 04:01:36;;;;;;;12.17;5.60;;;;;;;21.07;78.07;100671.36;125269;1098;104140;-77
2021/08/10 04:04:10;;;;;;;13.88;5.58;;;;;;;21.07;78.95;100666.91;125186;1099;104820;-75
2021/08/10 04:06:43;;;;;;;13.30;5.80;;;;;;;21.06;78.94;100669.58;125217;1099;104230;-75
2021/08/10 04:09:16;;;;;;;12.23;5.43;;;;;;;21.06;78.47;100667.78;125232;1099;104243;-77
2021/08/10 04:11:47;;;;;;;14.30;5.70;;;;;;;21.09;78.69;100669.56;126296;1099;104188;-76
2021/08/10 04:14:25;;;;;;;12.40;5.67;;;;;;;21.10;78.48;100668.65;125314;1099;104155;-77
2021/08/10 04:17:00;;;;;;;13.03;5.67;;;;;;;21.09;79.15;100670.44;125178;1099;104165;-76
2021/08/10 04:19:33;;;;;;;12.90;5.73;;;;;;;21.13;78.34;100672.21;125227;1099;104240;-76
2021/08/10 04:22:06;;;;;;;17.30;6.60;;;;;;;21.14;79.21;100679.30;125200;1100;104785;-76
2021/08/10 04:24:38;;;;;;;10.77;5.53;;;;;;;21.15;79.59;100678.41;125209;1099;104315;-76
2021/08/10 04:27:12;;;;;;;15.53;6.03;;;;;;;21.16;78.81;100677.53;125123;1102;104188;-76
2021/08/10 04:29:42;;;;;;;;;;;;;;;21.19;79.93;100682.86;125216;1099;104198;-76
2021/08/10 04:32:13;;;;;;;11.37;6.00;;;;;;;21.22;78.87;100675.72;125294;1099;104172;-76
2021/08/10 04:34:45;;;;;;;10.23;5.33;;;;;;;21.24;78.89;100676.58;125244;1099;104178;-76
2021/08/10 04:37:18;;;;;;;12.47;6.27;;;;;;;21.27;79.51;100676.56;125155;1102;104184;-75
2021/08/10 04:39:50;;;;;;;14.47;6.00;;;;;;;21.30;79.57;100672.13;125205;1099;104319;-76
2021/08/10 04:42:28;;;;;;;13.80;5.60;;;;;;;21.34;79.71;100671.19;125271;1099;104251;-76
2021/08/10 04:44:59;;;;;;;12.40;6.00;;;;;;;21.37;79.10;100671.17;125126;1102;104147;-77
2021/08/10 04:47:30;;;;;;;12.63;5.93;;;;;;;21.41;79.58;100674.73;125194;1099;104263;-76
2021/08/10 04:50:01;;;;;;;12.97;5.90;;;;;;;21.45;79.39;100667.58;125619;1099;104147;-76
2021/08/10 04:52:33;;;;;;;12.50;6.53;;;;;;;21.47;79.42;100668.45;125207;1099;104274;-77
2021/08/10 04:55:07;;;;;;;12.40;6.13;;;;;;;21.50;79.66;100672.03;125195;1099;104140;-76
2021/08/10 04:57:38;;;;;;;13.62;6.20;;;;;;;21.54;79.22;100668.43;125210;1099;104147;-75
2021/08/10 05:00:11;;;;;;;15.93;6.40;;;;;;;21.59;79.03;100675.53;125706;1099;104143;-76
2021/08/10 05:02:43;;;;;;;13.87;6.73;;;;;;;21.64;78.78;100682.59;125242;1099;104434;-75
2021/08/10 05:05:14;;;;;;;11.97;6.20;;;;;;;21.69;78.95;100674.55;125173;1099;104146;-75
2021/08/10 05:07:45;;;;;;;16.13;6.80;;;;;;;21.74;78.67;100672.75;125176;1099;104252;-75
2021/08/10 05:10:17;;;;;;;15.27;7.13;;;;;;;21.79;78.36;100670.92;125105;1098;104144;-76
2021/08/10 05:12:50;;;;;;;18.03;6.40;;;;;;;21.83;78.92;100670.02;125134;1099;104153;-76
2021/08/10 05:15:23;;;;;;;18.50;6.58;;;;;;;21.87;77.98;100665.52;125116;1099;104211;-77
2021/08/10 05:17:57;;;;;;;16.37;6.75;;;;;;;21.94;78.17;100669.02;125065;1099;104235;-77
2021/08/10 05:20:33;;;;;;;13.50;6.30;;;;;;;21.97;78.00;100663.65;125074;1100;104197;-79
2021/08/10 05:23:07;;;;;;;16.55;6.70;;;;;;;22.04;78.59;100665.38;125278;1102;104165;-78
2021/08/10 05:25:40;;;;;;;15.85;6.90;;;;;;;22.10;78.01;100670.67;125289;1102;104351;-79
2021/08/10 05:28:14;;;;;;;18.50;7.30;;;;;;;22.15;78.12;100666.16;125208;1102;104155;-78
2021/08/10 05:30:58;;;;;;;15.93;6.83;;;;;;;22.21;78.17;100658.08;125177;1102;105523;-79
2021/08/10 05:33:30;;;;;;;14.83;6.73;;;;;;;22.25;77.45;100659.84;125204;1102;104150;-78
2021/08/10 05:36:02;;;;;;;15.00;6.93;;;;;;;22.31;77.85;100663.38;125099;1102;104278;-76
2021/08/10 05:38:34;;;;;;;13.35;6.67;;;;;;;22.37;77.72;100653.49;124962;1102;104370;-78
2021/08/10 05:41:07;;;;;;;13.58;6.62;;;;;;;22.46;77.30;100662.34;125078;1102;104277;-77
2021/08/10 05:43:39;;;;;;;16.03;6.67;;;;;;;22.51;77.24;100661.37;124906;1105;104331;-78
2021/08/10 05:46:13;;;;;;;13.33;7.13;;;;;;;22.56;77.03;100655.97;124905;1105;104335;-77
2021/08/10 05:48:44;;;;;;;15.63;7.10;;;;;;;22.61;77.00;100663.05;124848;1105;104261;-77
2021/08/10 05:51:16;;;;;;;17.43;8.13;;;;;;;22.65;77.12;100658.54;124860;1105;104210;-76
2021/08/10 05:53:47;;;;;;;19.30;7.53;;;;;;;22.70;77.16;100663.84;124888;1105;104345;-76
2021/08/10 05:56:18;;;;;;;22.70;8.03;;;;;;;22.73;76.84;100670.02;124851;1105;104222;-77
2021/08/10 05:58:52;;;;;;;21.93;8.27;;;;;;;22.77;76.97;100670.89;124926;1102;104249;-78
2021/08/10 06:01:26;;;;;;;21.77;7.87;;;;;;;22.80;76.73;100658.36;125035;1102;104344;-79
2021/08/10 06:04:05;;;;;;;27.10;8.57;;;;;;;22.88;76.54;100665.42;125130;1102;102279;-79
2021/08/10 06:06:38;;;;;;;25.37;8.23;;;;;;;22.96;76.29;100659.05;125216;1102;104261;-76
2021/08/10 06:09:10;;;;;;;19.43;7.67;;;;;;;23.04;76.79;100664.30;125265;1102;104278;-77
2021/08/10 06:11:47;;;;;;;26.93;8.00;;;;;;;23.13;76.41;100666.88;125081;1101;104316;-77
2021/08/10 06:14:20;;;;;;;22.53;8.13;;;;;;;23.19;75.96;100671.28;125070;1102;104425;-77
2021/08/10 06:16:51;;;;;;;;;;;;;;;23.26;76.04;100674.75;126121;1099;104133;-77
2021/08/10 06:19:31;;;;;;;19.87;7.87;;;;;;;23.31;76.40;100673.79;125121;1099;104242;-77
2021/08/10 06:22:15;;;;;;;21.30;7.23;;;;;;;23.38;75.85;100677.25;125379;1099;104245;-76
2021/08/10 06:24:47;;;;;;;18.27;7.03;;;;;;;23.39;75.39;100678.13;125134;1099;104184;-78
2021/08/10 06:27:22;;;;;;;19.43;7.60;;;;;;;23.43;75.46;100677.19;125113;1099;104165;-79
2021/08/10 06:30:13;;;;;;;18.70;7.10;;;;;;;23.50;75.31;100676.20;125221;1099;104149;-80
2021/08/10 06:32:50;;;;;;;15.20;6.90;;;;;;;23.56;75.08;100681.47;125159;1099;102784;-80
2021/08/10 06:35:27;;;;;;;13.07;7.03;;;;;;;23.64;75.00;100678.67;125208;1100;104252;-80
2021/08/10 06:38:00;;;;;;;13.77;6.50;;;;;;;23.71;75.01;100680.33;125164;1102;104153;-79
2021/08/10 06:40:34;;;;;;;11.97;6.57;;;;;;;23.78;74.87;100681.11;125200;1100;104280;-78
2021/08/10 06:43:09;;;;;;;15.50;6.87;;;;;;;23.86;74.64;100671.20;125160;1099;104194;-77
2021/08/10 06:45:44;;;;;;;11.67;6.70;;;;;;;23.96;74.28;100674.61;125096;1099;104313;-80
2021/08/10 06:48:18;;;;;;;16.40;7.03;;;;;;;24.01;74.19;100673.63;125220;1099;104293;-78
2021/08/10 06:50:53;;;;;;;16.43;6.73;;;;;;;24.10;74.14;100671.70;125131;1099;104294;-80
2021/08/10 06:53:29;;;;;;;13.80;6.55;;;;;;;24.19;73.34;100682.26;125179;1099;104288;-78
2021/08/10 06:56:06;;;;;;;12.80;6.67;;;;;;;24.28;73.22;100683.87;125132;1102;104178;-79
2021/08/10 06:58:42;;;;;;;13.53;6.17;;;;;;;24.35;72.99;100673.00;125137;1102;104172;-79
2021/08/10 07:01:37;;;;;;;9.80;5.53;;;;;;;24.44;72.86;100679.12;125157;1099;104131;-79
2021/08/10 07:04:12;;;;;;;10.83;5.87;;;;;;;24.55;72.91;100669.07;125173;1102;113052;-79
2021/08/10 07:06:50;;;;;;;14.77;6.87;;;;;;;24.66;72.13;100667.09;125176;1099;102206;-79
2021/08/10 07:09:24;;;;;;;12.33;6.23;;;;;;;24.79;71.87;100664.16;125203;1099;104126;-77
2021/08/10 07:11:59;;;;;;;12.60;6.70;;;;;;;24.92;71.37;100660.31;125139;1100;102296;-77
2021/08/10 07:14:30;;;;;;;12.03;6.47;;;;;;;24.99;70.80;100661.93;125203;1099;104144;-77
2021/08/10 07:17:04;;;;;;;16.43;6.63;;;;;;;25.08;69.81;100660.86;125163;1099;104172;-76
2021/08/10 07:19:38;;;;;;;12.37;6.08;;;;;;;25.18;69.70;100665.13;125252;1099;104172;-77
2021/08/10 07:22:13;;;;;;;12.13;6.83;;;;;;;25.28;69.51;100655.05;125175;1099;104178;-77
2021/08/10 07:24:46;;;;;;;13.03;6.43;;;;;;;25.38;68.83;100653.06;125023;1099;104255;-77
2021/08/10 07:27:20;;;;;;;12.33;6.30;;;;;;;25.48;68.20;100649.25;125178;1102;104181;-76
2021/08/10 07:32:41;;;;;;;12.40;6.70;;;;;;;25.87;69.02;100648.29;125157;1102;104431;-77
2021/08/10 07:35:14;;;;;;;14.63;5.87;;;;;;;26.06;68.51;100649.63;125162;1102;104199;-77
2021/08/10 07:37:49;;;;;;;11.35;6.10;;;;;;;26.17;67.26;100650.22;125157;1102;104277;-77
2021/08/10 07:40:23;;;;;;;15.70;6.33;;;;;;;26.30;67.50;100652.58;125199;1102;104389;-76
2021/08/10 07:42:59;;;;;;;11.80;6.17;;;;;;;26.45;66.68;100651.29;125175;1102;104173;-76
2021/08/10 07:45:30;;;;;;;14.27;6.40;;;;;;;26.61;66.21;100657.98;125115;1102;104310;-76
2021/08/10 07:48:05;;;;;;;10.10;5.93;;;;;;;26.75;65.26;100654.94;125188;1102;104265;-78
2021/08/10 07:50:41;;;;;;;12.03;6.47;;;;;;;26.83;64.89;100647.55;125159;1102;104156;-77
2021/08/10 07:53:19;;;;;;;11.53;6.30;;;;;;;26.89;63.61;100655.41;125165;1102;104188;-77
2021/08/10 07:55:54;;;;;;;11.80;5.97;;;;;;;26.97;63.54;100660.56;125165;1102;104679;-76
2021/08/10 07:58:29;;;;;;;14.13;6.10;;;;;;;27.06;62.63;100657.59;125397;1102;104172;-77
2021/08/10 08:01:04;;;;;;;11.17;5.83;;;;;;;27.16;63.40;100660.91;126263;1099;104265;-78
2021/08/10 08:03:39;;;;;;;10.63;5.67;;;;;;;27.26;62.91;100666.89;125037;1102;104389;-75
2021/08/10 08:06:12;;;;;;;10.50;6.00;;;;;;;27.31;61.49;100664.05;125059;1099;104244;-76
2021/08/10 08:08:42;;;;;;;;;;;;;;;27.34;60.06;100662.17;125124;1099;104168;-76
2021/08/10 08:11:19;;;;;;;14.90;5.78;;;;;;;27.35;61.12;100672.03;125131;1099;104213;-76
2021/08/10 08:13:55;;;;;;;10.70;6.10;;;;;;;27.39;61.28;100656.64;125250;1099;104258;-76
2021/08/10 08:16:28;;;;;;;10.73;5.70;;;;;;;27.41;60.74;100665.55;125037;1102;104309;-75
2021/08/10 08:19:01;;;;;;;11.67;5.87;;;;;;;27.48;60.70;100656.34;126107;1099;104190;-75
2021/08/10 08:21:32;;;;;;;11.37;5.70;;;;;;;27.44;59.75;100660.06;125184;1099;104264;-77
2021/08/10 08:24:10;;;;;;;10.67;5.57;;;;;;;27.41;59.13;100652.08;125225;1099;104198;-77
2021/08/10 08:26:41;;;;;;;9.93;5.47;;;;;;;27.48;59.58;100650.09;125280;1099;104146;-75
2021/08/10 08:29:21;;;;;;;11.03;5.67;;;;;;;27.55;59.44;100648.94;125142;1099;104466;-76
2021/08/10 08:31:58;;;;;;;11.53;5.87;;;;;;;27.64;58.99;100648.64;125292;1099;104149;-74
2021/08/10 08:34:28;;;;;;;11.37;5.77;;;;;;;27.70;57.34;100661.05;125121;1102;104143;-75
2021/08/10 08:37:00;;;;;;;9.60;5.10;;;;;;;27.63;57.91;100644.20;125249;1099;104293;-76
2021/08/10 08:39:37;;;;;;;10.80;5.67;;;;;;;27.66;57.70;100637.80;125208;1102;104944;-76
2021/08/10 08:42:13;;;;;;;11.60;5.47;;;;;;;27.70;57.96;100639.48;126252;1099;104302;-77
2021/08/10 08:44:46;;;;;;;11.67;6.00;;;;;;;27.73;57.01;100634.86;125187;1099;105994;-76
2021/08/10 08:47:24;;;;;;;9.30;5.57;;;;;;;27.79;57.18;100633.78;125158;1102;104146;-78
2021/08/10 08:50:01;;;;;;;8.77;5.83;;;;;;;27.78;56.67;100641.00;125273;1099;104188;-77
2021/08/10 08:52:39;;;;;;;8.33;5.43;;;;;;;27.76;56.68;100633.88;125145;1100;105416;-77
2021/08/10 08:55:16;;;;;;;11.73;5.50;;;;;;;27.74;56.70;100633.06;125159;1099;104156;-77
2021/08/10 08:57:48;;;;;;;9.57;5.30;;;;;;;27.79;56.81;100621.17;126139;1099;104169;-77
2021/08/10 09:00:20;;;;;;;8.53;5.07;;;;;;;27.74;55.83;100622.28;125232;1099;104271;-77
2021/08/10 09:02:54;;;;;;;13.53;5.47;;;;;;;27.77;56.01;100630.27;126238;1099;104580;-79
2021/08/10 09:05:28;;;;;;;9.97;5.60;;;;;;;27.87;56.09;100626.30;125550;1099;104142;-76
2021/08/10 09:08:31;;;;;;;11.20;5.47;;;;;;;27.90;55.66;100628.02;125179;1099;104192;-78
2021/08/10 09:11:07;;;;;;;11.60;5.70;;;;;;;27.81;56.08;100629.20;125214;1102;104252;-78
2021/08/10 09:13:54;;;;;;;8.70;5.70;;;;;;;27.79;55.81;100623.00;125195;1099;104646;-78
2021/08/10 09:16:32;;;;;;;10.10;5.93;;;;;;;27.81;55.63;100626.52;125249;1099;104198;-76
2021/08/10 09:19:08;;;;;;;10.87;5.80;;;;;;;27.87;55.12;100625.44;125145;1099;104181;-77
2021/08/10 09:21:40;;;;;;;10.00;5.53;;;;;;;27.88;55.37;100621.81;125122;1099;104326;-79
2021/08/10 09:24:26;;;;;;;10.67;5.53;;;;;;;27.96;54.94;100627.84;125078;1102;104178;-77
2021/08/10 09:27:00;;;;;;;7.37;5.27;;;;;;;27.95;55.06;100624.25;125172;1102;109023;-77
2021/08/10 09:29:47;;;;;;;10.50;5.47;;;;;;;28.04;54.87;100614.09;125143;1102;104198;-78
2021/08/10 09:35:55;;;;;;;8.70;5.17;;;;;;;28.07;54.43;100613.99;125078;1100;104252;-76
2021/08/10 09:38:48;;;;;;;8.15;5.70;;;;;;;28.10;54.02;100617.45;125152;1099;104271;-75
2021/08/10 09:41:20;;;;;;;8.30;5.57;;;;;;;28.14;54.69;100607.42;125229;1099;104181;-77
2021/08/10 09:44:17;;;;;;;9.23;5.23;;;;;;;28.23;54.54;100611.62;125198;1099;104143;-76
2021/08/10 09:46:54;;;;;;;11.13;5.67;;;;;;;28.23;54.53;100612.49;125164;1102;104201;-79
2021/08/10 09:49:45;;;;;;;10.47;5.77;;;;;;;28.18;54.03;100611.78;125136;1102;104246;-76
2021/08/10 09:52:30;;;;;;;10.33;6.10;;;;;;;28.21;54.34;100606.28;125188;1100;104249;-77
2021/08/10 09:55:17;;;;;;;13.70;6.13;;;;;;;28.28;54.77;100609.63;125231;1099;104168;-77
2021/08/10 09:58:04;;;;;;;10.27;5.70;;;;;;;28.28;53.94;100606.93;125223;1099;104230;-78
2021/08/10 10:00:45;;;;;;;9.83;5.43;;;;;;;28.33;54.29;100596.87;125203;1100;104204;-77
2021/08/10 10:03:25;;;;;;;8.70;5.73;;;;;;;28.35;53.82;100592.29;125127;1097;104145;-78
2021/08/10 10:06:06;;;;;;;11.50;5.80;;;;;;;28.39;54.37;100585.86;125081;1099;104178;-77
2021/08/10 10:08:38;;;;;;;10.90;5.63;;;;;;;28.40;54.04;100592.99;125140;1102;104225;-76
2021/08/10 10:11:14;;;;;;;10.90;5.70;;;;;;;28.42;54.02;100585.74;125186;1099;104153;-77
2021/08/10 10:13:48;;;;;;;8.90;5.97;;;;;;;28.45;53.92;100592.82;125084;1099;104181;-77
2021/08/10 10:16:21;;;;;;;14.58;6.03;;;;;;;28.48;53.81;100595.41;125168;1099;104212;-78
2021/08/10 10:18:57;;;;;;;10.17;6.23;;;;;;;28.53;53.78;100598.80;125132;1102;104238;-78
2021/08/10 10:21:28;;;;;;;11.33;6.20;;;;;;;28.56;53.03;100587.02;125225;1099;104155;-79
2021/08/10 10:24:04;;;;;;;11.73;5.83;;;;;;;28.57;52.97;100594.19;126117;1099;104156;-79
2021/08/10 10:26:42;;;;;;;9.67;5.70;;;;;;;28.60;53.47;100586.88;125041;1102;104178;-78
2021/08/10 10:29:17;;;;;;;16.03;6.20;;;;;;;28.65;53.39;100592.11;125122;1102;104310;-80
2021/08/10 10:31:55;;;;;;;11.83;6.13;;;;;;;28.59;53.09;100582.41;125132;1102;104204;-79
2021/08/10 10:34:29;;;;;;;10.83;5.67;;;;;;;28.57;52.76;100595.06;125075;1102;104190;-79
2021/08/10 10:37:05;;;;;;;8.53;5.30;;;;;;;28.54;52.70;100597.88;125023;1102;104248;-77
2021/08/10 10:39:52;;;;;;;10.60;5.27;;;;;;;28.62;52.60;100594.92;125205;1098;104152;-80
2021/08/10 10:42:26;;;;;;;9.17;5.07;;;;;;;28.61;51.99;100585.95;125096;1102;104361;-77
2021/08/10 10:45:00;;;;;;;7.87;5.30;;;;;;;28.63;52.28;100592.16;125195;1102;104163;-78
2021/08/10 10:47:41;;;;;;;8.17;4.83;;;;;;;28.57;51.50;100588.80;125518;1099;104165;-77
2021/08/10 10:50:21;;;;;;;9.17;5.03;;;;;;;28.59;51.45;100592.34;125175;1099;104614;-78
2021/08/10 10:53:09;;;;;;;11.77;5.20;;;;;;;28.67;51.66;100588.42;125181;1099;104224;-78
2021/08/10 10:55:43;;;;;;;7.40;5.37;;;;;;;28.66;51.34;100580.38;126134;1099;104147;-77
2021/08/10 10:58:30;;;;;;;10.47;5.40;;;;;;;28.76;51.62;100583.59;125127;1099;104380;-80
2021/08/10 11:01:14;;;;;;;8.50;5.17;;;;;;;28.65;51.22;100587.58;125184;1099;104150;-78
2021/08/10 11:04:11;;;;;;;13.70;5.40;;;;;;;28.56;51.62;100592.42;125152;1102;104305;-77
2021/08/10 11:06:46;;;;;;;9.20;5.60;;;;;;;28.67;51.38;100585.72;125180;1099;104245;-77
2021/08/10 11:09:42;;;;;;;9.17;5.60;;;;;;;28.77;51.63;100582.67;125206;1099;108275;-78
2021/08/10 11:12:42;;;;;;;12.50;5.67;;;;;;;28.80;51.68;100580.72;126249;1099;104157;-75
2021/08/10 11:15:16;;;;;;;9.63;5.33;;;;;;;28.82;51.33;100578.83;125216;1099;104187;-76
2021/08/10 11:18:14;;;;;;;12.30;5.17;;;;;;;28.87;51.51;100570.55;125859;1099;104161;-78
2021/08/10 11:21:15;;;;;;;6.50;4.83;;;;;;;28.93;51.30;100567.61;125151;1102;104220;-76
2021/08/10 11:23:58;;;;;;;9.50;5.40;;;;;;;28.97;51.04;100571.95;125187;1099;104168;-75
2021/08/10 11:26:55;;;;;;;10.57;5.33;;;;;;;28.94;50.57;100573.91;125139;1099;104252;-74
2021/08/10 11:29:45;;;;;;;6.93;4.57;;;;;;;28.89;50.65;100567.79;125114;1099;104146;-75
2021/08/10 11:32:44;;;;;;;8.97;5.33;;;;;;;28.87;50.78;100573.25;125024;1099;104144;-76
2021/08/10 11:35:43;;;;;;;9.80;5.10;;;;;;;28.93;50.81;100564.03;125077;1099;104204;-76
2021/08/10 11:38:32;;;;;;;11.00;5.53;;;;;;;29.07;50.81;100567.06;125108;1099;104162;-78
2021/08/10 11:41:23;;;;;;;11.13;5.33;;;;;;;29.04;50.36;100557.24;126236;1099;104162;-77
2021/08/10 11:44:02;;;;;;;9.43;5.33;;;;;;;29.03;50.44;100560.91;125103;1099;104217;-77
2021/08/10 11:46:42;;;;;;;11.48;5.25;;;;;;;28.98;50.14;100554.79;126191;1099;104732;-77
2021/08/10 11:49:24;;;;;;;8.13;5.10;;;;;;;28.97;50.14;100541.38;125543;1099;105538;-76
2021/08/10 11:52:08;;;;;;;9.77;5.17;;;;;;;28.98;50.16;100537.72;125234;1099;104422;-78